createdAt,value
2022-09-12T00:00:24.682Z,11.18
2022-09-12T00:03:26.014Z,11.15
2022-09-12T00:06:27.310Z,11.07
2022-09-12T00:09:28.821Z,11.05
2022-09-12T00:12:30.153Z,11.06
2022-09-12T00:15:31.486Z,11.06
2022-09-12T00:18:33.715Z,11.03
2022-09-12T00:21:36.861Z,11.00
2022-09-12T00:24:38.246Z,10.93
2022-09-12T00:27:39.617Z,10.88
2022-09-12T00:30:46.606Z,10.78
2022-09-12T00:33:47.983Z,10.71
2022-09-12T00:36:49.307Z,10.75
2022-09-12T00:39:50.722Z,10.71
2022-09-12T00:42:52.083Z,10.71
2022-09-12T00:45:53.628Z,10.74
2022-09-12T00:49:11.416Z,10.73
2022-09-12T00:52:16.178Z,10.76
2022-09-12T00:55:29.947Z,10.68
2022-09-12T00:58:42.304Z,10.66
2022-09-12T01:01:46.518Z,10.70
2022-09-12T01:04:48.340Z,10.69
2022-09-12T01:07:50.683Z,10.63
2022-09-12T01:10:52.326Z,10.45
2022-09-12T01:13:54.579Z,10.37
2022-09-12T01:16:56.084Z,10.38
2022-09-12T01:20:16.002Z,10.28
2022-09-12T01:23:59.301Z,10.08
2022-09-12T01:27:25.971Z,10.00
2022-09-12T01:30:55.972Z,10.02
2022-09-12T01:34:15.487Z,10.00
2022-09-12T01:37:52.884Z,9.88
2022-09-12T01:41:14.060Z,9.85
2022-09-12T01:44:41.425Z,9.82
2022-09-12T01:48:07.485Z,9.78
2022-09-12T01:51:17.729Z,9.76
2022-09-12T01:54:41.660Z,9.67
2022-09-12T01:58:02.911Z,9.54
2022-09-12T02:01:15.588Z,9.47
2022-09-12T02:04:25.453Z,9.37
2022-09-12T02:07:39.432Z,9.32
2022-09-12T02:10:55.833Z,9.30
2022-09-12T02:14:15.465Z,9.35
2022-09-12T02:17:20.698Z,9.44
2022-09-12T02:20:49.501Z,9.40
2022-09-12T02:23:58.598Z,9.29
2022-09-12T02:27:05.709Z,9.34
2022-09-12T02:30:08.825Z,9.35
2022-09-12T02:33:23.563Z,9.38
2022-09-12T02:36:27.889Z,9.47
2022-09-12T02:39:29.334Z,9.53
2022-09-12T02:42:30.737Z,9.61
2022-09-12T02:45:33.984Z,9.54
2022-09-12T02:48:37.798Z,9.33
2022-09-12T02:51:40.090Z,9.53
2022-09-12T02:54:42.939Z,9.57
2022-09-12T02:57:44.530Z,9.50
2022-09-12T03:00:55.238Z,9.53
2022-09-12T03:07:44.795Z,9.36
2022-09-12T03:10:48.884Z,9.36
2022-09-12T03:14:03.255Z,9.29
2022-09-12T03:17:24.196Z,9.15
2022-09-12T03:20:46.503Z,9.20
2022-09-12T03:24:17.703Z,9.19
2022-09-12T03:27:43.156Z,9.23
2022-09-12T03:30:47.399Z,9.26
2022-09-12T03:33:48.791Z,9.28
2022-09-12T03:36:50.525Z,9.22
2022-09-12T03:39:52.021Z,9.16
2022-09-12T03:42:53.428Z,9.09
2022-09-12T03:45:54.821Z,9.03
2022-09-12T03:48:56.324Z,8.97
2022-09-12T03:51:57.677Z,8.97
2022-09-12T03:54:59.004Z,9.00
2022-09-12T03:58:00.385Z,9.01
2022-09-12T04:01:10.574Z,8.94
2022-09-12T04:04:11.928Z,8.99
2022-09-12T04:07:13.269Z,8.96
2022-09-12T04:10:16.174Z,8.93
2022-09-12T04:13:17.721Z,8.89
2022-09-12T04:16:19.317Z,8.92
2022-09-12T04:19:20.694Z,8.90
2022-09-12T04:22:22.044Z,8.88
2022-09-12T04:25:23.359Z,8.86
2022-09-12T04:28:25.472Z,8.89
2022-09-12T04:31:27.252Z,8.91
2022-09-12T04:34:30.966Z,8.83
2022-09-12T04:37:32.340Z,8.70
2022-09-12T04:40:33.731Z,8.65
2022-09-12T04:43:35.090Z,8.64
2022-09-12T04:46:39.427Z,8.62
2022-09-12T04:49:40.744Z,8.66
2022-09-12T04:52:42.158Z,8.63
2022-09-12T04:55:43.487Z,8.65
2022-09-12T04:58:45.255Z,8.63
2022-09-12T05:01:46.604Z,8.61
2022-09-12T05:04:47.987Z,8.69
2022-09-12T05:07:49.322Z,8.79
2022-09-12T05:10:50.659Z,8.92
2022-09-12T05:13:52.147Z,8.96
2022-09-12T05:16:53.538Z,8.89
2022-09-12T05:19:54.999Z,8.91
2022-09-12T05:22:56.325Z,8.94
2022-09-12T05:25:59.411Z,8.96
2022-09-12T05:29:01.151Z,9.01
2022-09-12T05:32:03.112Z,9.07
2022-09-12T05:35:04.774Z,9.12
2022-09-12T05:38:06.968Z,9.25
2022-09-12T05:41:16.965Z,9.36
2022-09-12T05:44:19.644Z,9.52
2022-09-12T05:47:21.006Z,9.65
2022-09-12T05:50:22.348Z,9.74
2022-09-12T05:53:23.665Z,9.79
2022-09-12T05:56:27.427Z,9.85
2022-09-12T05:59:28.736Z,9.96
2022-09-12T06:02:30.079Z,10.03
2022-09-12T06:05:31.441Z,10.41
2022-09-12T06:08:33.824Z,12.31
2022-09-12T06:11:36.900Z,13.67
2022-09-12T06:14:38.232Z,14.41
2022-09-12T06:17:39.564Z,14.99
2022-09-12T06:20:40.890Z,15.34
2022-09-12T06:23:42.298Z,15.39
2022-09-12T06:26:43.778Z,16.03
2022-09-12T06:29:45.792Z,16.77
2022-09-12T06:32:47.121Z,16.95
2022-09-12T06:35:48.477Z,16.62
2022-09-12T06:39:14.256Z,16.94
2022-09-12T06:42:15.693Z,17.35
2022-09-12T06:45:30.380Z,17.47
2022-09-12T06:48:31.944Z,18.02
2022-09-12T06:51:34.164Z,18.14
2022-09-12T06:54:35.488Z,17.95
2022-09-12T06:57:36.838Z,17.51
2022-09-12T07:00:38.180Z,18.03
2022-09-12T07:03:40.480Z,17.74
2022-09-12T07:06:42.512Z,18.16
2022-09-12T07:09:43.845Z,18.91
2022-09-12T07:12:45.177Z,19.33
2022-09-12T07:15:46.496Z,19.09
2022-09-12T07:19:07.697Z,19.56
2022-09-12T07:22:09.034Z,19.57
2022-09-12T07:25:10.362Z,19.79
2022-09-12T07:28:11.714Z,20.19
2022-09-12T07:31:15.590Z,20.36
2022-09-12T07:34:16.993Z,20.29
2022-09-12T07:37:18.390Z,20.42
2022-09-12T07:40:19.743Z,20.61
2022-09-12T07:43:21.115Z,20.77
2022-09-12T07:46:23.298Z,21.33
2022-09-12T07:49:24.622Z,21.65
2022-09-12T07:52:25.970Z,21.83
2022-09-12T07:55:27.294Z,22.13
2022-09-12T07:58:29.594Z,22.07
2022-09-12T08:01:31.119Z,21.67
2022-09-12T08:04:32.487Z,21.26
2022-09-12T08:07:33.936Z,21.44
2022-09-12T08:10:35.983Z,21.62
2022-09-12T08:13:38.422Z,21.82
2022-09-12T08:16:39.755Z,21.58
2022-09-12T08:19:41.128Z,21.06
2022-09-12T08:22:42.459Z,21.06
2022-09-12T08:25:43.788Z,20.97
2022-09-12T08:28:46.119Z,20.99
2022-09-12T08:31:47.423Z,20.88
2022-09-12T08:34:48.771Z,20.65
2022-09-12T08:37:50.104Z,20.61
2022-09-12T08:41:00.266Z,20.55
2022-09-12T08:44:16.459Z,20.20
2022-09-12T08:47:27.309Z,19.81
2022-09-12T08:50:28.647Z,19.69
2022-09-12T08:53:33.240Z,19.68
2022-09-12T08:56:37.480Z,19.56
2022-09-12T08:59:41.828Z,19.34
2022-09-12T09:02:49.128Z,19.43
2022-09-12T09:06:00.429Z,19.44
2022-09-12T09:09:09.173Z,19.61
2022-09-12T09:12:40.515Z,19.64
2022-09-12T09:16:04.576Z,19.66
2022-09-12T09:19:14.064Z,19.73
2022-09-12T09:22:36.249Z,19.82
2022-09-12T09:25:45.673Z,19.72
2022-09-12T09:28:52.651Z,19.77
2022-09-12T09:35:37.380Z,19.92
2022-09-12T09:38:49.104Z,19.76
2022-09-12T09:42:12.907Z,19.80
2022-09-12T09:45:16.987Z,19.86
2022-09-12T09:48:23.753Z,20.02
2022-09-12T09:51:32.983Z,20.19
2022-09-12T09:54:40.675Z,20.28
2022-09-12T09:57:44.187Z,20.44
2022-09-12T10:00:46.203Z,20.53
2022-09-12T10:03:56.512Z,20.56
2022-09-12T10:07:17.459Z,20.73
2022-09-12T10:10:20.095Z,20.91
2022-09-12T10:13:34.479Z,20.95
2022-09-12T10:16:49.928Z,20.69
2022-09-12T10:20:10.480Z,20.74
2022-09-12T10:23:18.592Z,20.80
2022-09-12T10:26:20.526Z,20.98
2022-09-12T10:29:30.712Z,20.98
2022-09-12T10:32:41.270Z,20.81
2022-09-12T10:35:48.238Z,20.92
2022-09-12T10:38:53.796Z,21.20
2022-09-12T10:41:55.146Z,21.43
2022-09-12T10:44:56.500Z,21.18
2022-09-12T10:48:07.296Z,21.25
2022-09-12T10:51:27.911Z,21.08
2022-09-12T10:54:30.190Z,21.07
2022-09-12T10:58:15.398Z,20.82
2022-09-12T11:01:29.164Z,21.11
2022-09-12T11:04:57.813Z,21.21
2022-09-12T11:08:28.102Z,21.22
2022-09-12T11:11:42.758Z,21.39
2022-09-12T11:15:08.469Z,21.22
2022-09-12T11:18:32.847Z,21.14
2022-09-12T11:21:53.578Z,21.21
2022-09-12T11:25:25.364Z,21.18
2022-09-12T11:28:35.955Z,21.06
2022-09-12T11:31:52.696Z,21.11
2022-09-12T11:35:17.884Z,21.23
2022-09-12T11:38:22.212Z,21.23
2022-09-12T11:41:30.196Z,21.26
2022-09-12T11:44:40.372Z,21.28
2022-09-12T11:47:46.552Z,21.27
2022-09-12T11:50:47.892Z,21.46
2022-09-12T11:54:01.964Z,21.50
2022-09-12T11:57:23.280Z,21.27
2022-09-12T12:00:32.011Z,21.04
2022-09-12T12:03:40.656Z,21.15
2022-09-12T12:07:10.285Z,21.33
2022-09-12T12:10:32.748Z,21.49
2022-09-12T12:13:48.048Z,21.62
2022-09-12T12:16:49.988Z,21.97
2022-09-12T12:20:08.324Z,21.65
2022-09-12T12:23:27.053Z,21.82
2022-09-12T12:26:40.713Z,21.94
2022-09-12T12:29:45.617Z,21.73
2022-09-12T12:32:47.025Z,21.79
2022-09-12T12:36:04.957Z,21.96
2022-09-12T12:39:48.147Z,21.94
2022-09-12T12:42:49.629Z,22.10
2022-09-12T12:46:00.788Z,21.84
2022-09-12T12:49:21.430Z,22.11
2022-09-12T12:52:24.102Z,22.23
2022-09-12T12:55:57.671Z,22.35
2022-09-12T12:59:02.385Z,22.36
2022-09-12T13:02:04.472Z,22.34
2022-09-12T13:05:18.078Z,22.67
2022-09-12T13:08:19.355Z,22.60
2022-09-12T13:11:31.882Z,22.39
2022-09-12T13:14:34.903Z,22.02
2022-09-12T13:17:41.231Z,21.76
2022-09-12T13:20:49.510Z,21.85
2022-09-12T13:24:15.676Z,21.82
2022-09-12T13:27:25.147Z,21.72
2022-09-12T13:30:28.385Z,21.59
2022-09-12T13:33:49.778Z,21.60
2022-09-12T13:37:09.209Z,21.66
2022-09-12T13:40:40.563Z,21.49
2022-09-12T13:43:46.300Z,21.43
2022-09-12T13:46:48.779Z,21.57
2022-09-12T13:49:50.302Z,21.67
2022-09-12T13:52:55.825Z,21.80
2022-09-12T13:55:59.128Z,21.74
2022-09-12T13:59:02.292Z,21.76
2022-09-12T14:02:19.115Z,21.93
2022-09-12T14:05:24.969Z,21.99
2022-09-12T14:08:26.388Z,22.11
2022-09-12T14:11:30.196Z,21.92
2022-09-12T14:17:36.135Z,21.88
2022-09-12T14:20:38.977Z,21.93
2022-09-12T14:23:44.742Z,21.47
2022-09-12T14:26:46.591Z,21.44
2022-09-12T14:29:48.310Z,21.66
2022-09-12T14:33:11.456Z,21.55
2022-09-12T14:36:24.189Z,21.34
2022-09-12T14:39:42.460Z,21.75
2022-09-12T14:42:44.250Z,21.92
2022-09-12T14:45:54.214Z,21.81
2022-09-12T14:49:00.655Z,21.88
2022-09-12T14:52:06.402Z,21.84
2022-09-12T14:55:44.718Z,21.49
2022-09-12T14:58:46.104Z,21.69
2022-09-12T15:01:47.521Z,21.56
2022-09-12T15:04:54.306Z,21.58
2022-09-12T15:08:02.048Z,21.53
2022-09-12T15:11:06.299Z,21.52
2022-09-12T15:14:15.031Z,21.44
2022-09-12T15:17:16.374Z,21.41
2022-09-12T15:20:17.731Z,21.62
2022-09-12T15:23:45.040Z,21.64
2022-09-12T15:26:46.403Z,21.48
2022-09-12T15:29:47.736Z,21.48
2022-09-12T15:32:49.044Z,21.37
2022-09-12T15:35:51.347Z,21.26
2022-09-12T15:38:52.860Z,21.13
2022-09-12T15:41:54.196Z,21.09
2022-09-12T15:44:58.391Z,21.06
2022-09-12T15:48:02.232Z,21.11
2022-09-12T15:51:03.692Z,20.97
2022-09-12T15:54:05.063Z,21.01
2022-09-12T15:57:06.852Z,21.02
2022-09-12T16:00:08.805Z,20.91
2022-09-12T16:03:25.580Z,20.65
2022-09-12T16:06:26.916Z,20.52
2022-09-12T16:09:28.340Z,20.40
2022-09-12T16:12:29.689Z,20.28
2022-09-12T16:15:31.101Z,20.18
2022-09-12T16:18:32.429Z,20.05
2022-09-12T16:21:33.797Z,19.95
2022-09-12T16:24:35.189Z,19.87
2022-09-12T16:27:36.925Z,19.81
2022-09-12T16:30:38.373Z,19.74
2022-09-12T16:33:40.286Z,19.66
2022-09-12T16:36:41.617Z,19.57
2022-09-12T16:39:43.043Z,19.57
2022-09-12T16:42:45.038Z,19.54
2022-09-12T16:45:46.401Z,19.46
2022-09-12T16:48:52.413Z,19.43
2022-09-12T16:51:54.102Z,19.44
2022-09-12T16:54:55.483Z,19.47
2022-09-12T16:57:56.850Z,19.40
2022-09-12T17:01:13.480Z,19.27
2022-09-12T17:04:15.010Z,19.16
2022-09-12T17:07:16.350Z,19.16
2022-09-12T17:10:17.738Z,19.14
2022-09-12T17:13:19.091Z,19.05
2022-09-12T17:16:21.131Z,19.04
2022-09-12T17:19:24.810Z,19.00
2022-09-12T17:22:26.147Z,19.01
2022-09-12T17:25:27.504Z,18.98
2022-09-12T17:28:29.455Z,18.94
2022-09-12T17:31:31.286Z,18.83
2022-09-12T17:34:32.676Z,18.82
2022-09-12T17:37:34.776Z,18.78
2022-09-12T17:40:58.050Z,18.71
2022-09-12T17:43:58.807Z,18.66
2022-09-12T17:47:00.190Z,18.60
2022-09-12T17:50:27.776Z,18.57
2022-09-12T17:53:22.996Z,18.45
2022-09-12T17:56:24.967Z,18.40
2022-09-12T17:59:26.374Z,18.30
2022-09-12T18:02:31.326Z,18.29
2022-09-12T18:05:34.337Z,18.28
2022-09-12T18:08:35.648Z,18.26
2022-09-12T18:11:37.013Z,18.21
2022-09-12T18:14:38.333Z,18.16
2022-09-12T18:17:39.661Z,18.10
2022-09-12T18:20:49.749Z,18.00
2022-09-12T18:23:51.137Z,17.95
2022-09-12T18:26:52.475Z,17.90
2022-09-12T18:30:17.210Z,17.88
2022-09-12T18:33:15.129Z,17.85
2022-09-12T18:36:17.717Z,17.84
2022-09-12T18:39:19.055Z,17.79
2022-09-12T18:42:20.494Z,17.70
2022-09-12T18:45:21.854Z,17.64
2022-09-12T18:48:23.239Z,17.58
2022-09-12T18:51:26.844Z,17.50
2022-09-12T18:54:28.270Z,17.43
2022-09-12T18:57:29.614Z,17.41
2022-09-12T19:00:30.983Z,17.34
2022-09-12T19:03:32.339Z,17.30
2022-09-12T19:06:36.899Z,17.27
2022-09-12T19:09:38.243Z,17.17
2022-09-12T19:12:39.623Z,17.09
2022-09-12T19:15:41.125Z,16.96
2022-09-12T19:18:42.802Z,16.85
2022-09-12T19:21:44.312Z,16.74
2022-09-12T19:24:45.767Z,16.68
2022-09-12T19:27:47.101Z,16.65
2022-09-12T19:30:48.620Z,16.65
2022-09-12T19:33:50.531Z,16.65
2022-09-12T19:36:51.872Z,16.63
2022-09-12T19:39:53.214Z,16.58
2022-09-12T19:42:54.601Z,16.53
2022-09-12T19:45:56.046Z,16.46
2022-09-12T19:48:57.421Z,16.40
2022-09-12T19:51:58.745Z,16.38
2022-09-12T19:55:00.098Z,16.36
2022-09-12T19:58:01.701Z,16.36
2022-09-12T20:01:10.221Z,16.32
2022-09-12T20:04:11.592Z,16.27
2022-09-12T20:07:13.061Z,16.28
2022-09-12T20:10:15.407Z,16.29
2022-09-12T20:13:16.725Z,16.25
2022-09-12T20:16:22.440Z,16.23
2022-09-12T20:19:24.070Z,16.13
2022-09-12T20:22:25.605Z,16.09
2022-09-12T20:25:26.953Z,16.06
2022-09-12T20:28:28.317Z,16.04
2022-09-12T20:31:29.920Z,16.05
2022-09-12T20:34:31.306Z,16.03
2022-09-12T20:37:32.663Z,16.01
2022-09-12T20:40:34.027Z,15.97
2022-09-12T20:43:36.110Z,15.91
2022-09-12T20:46:37.789Z,15.84
2022-09-12T20:49:39.211Z,15.85
2022-09-12T20:52:40.556Z,15.83
2022-09-12T20:55:49.631Z,15.79
2022-09-12T20:58:51.060Z,15.70
2022-09-12T21:01:52.478Z,15.64
2022-09-12T21:04:53.865Z,15.54
2022-09-12T21:07:55.200Z,15.50
2022-09-12T21:10:57.979Z,15.53
2022-09-12T21:13:59.355Z,15.55
2022-09-12T21:17:00.711Z,15.57
2022-09-12T21:20:02.332Z,15.57
2022-09-12T21:23:03.711Z,15.52
2022-09-12T21:26:05.527Z,15.49
2022-09-12T21:29:06.880Z,15.51
2022-09-12T21:32:12.155Z,15.56
2022-09-12T21:35:15.672Z,15.59
2022-09-12T21:38:18.545Z,15.62
2022-09-12T21:41:19.950Z,15.60
2022-09-12T21:44:21.433Z,15.66
2022-09-12T21:47:22.889Z,15.67
2022-09-12T21:50:24.277Z,15.66
2022-09-12T21:53:25.695Z,15.63
2022-09-12T21:56:27.061Z,15.60
2022-09-12T21:59:28.409Z,15.58
2022-09-12T22:02:29.746Z,15.54
2022-09-12T22:05:31.053Z,15.50
2022-09-12T22:08:33.817Z,15.49
2022-09-12T22:11:35.210Z,15.44
2022-09-12T22:14:36.663Z,15.47
2022-09-12T22:17:38.098Z,15.44
2022-09-12T22:20:39.430Z,15.44
2022-09-12T22:23:41.043Z,15.45
2022-09-12T22:26:43.975Z,15.50
2022-09-12T22:29:45.446Z,15.46
2022-09-12T22:32:50.129Z,15.43
2022-09-12T22:35:51.474Z,15.43
2022-09-12T22:38:52.806Z,15.43
2022-09-12T22:41:54.127Z,15.44
2022-09-12T22:44:55.461Z,15.47
2022-09-12T22:48:00.579Z,15.50
2022-09-12T22:51:02.432Z,15.52
2022-09-12T22:54:03.751Z,15.54
2022-09-12T22:57:05.183Z,15.58
2022-09-12T23:00:07.179Z,15.60
2022-09-12T23:03:08.582Z,15.55
2022-09-12T23:06:10.505Z,15.48
2022-09-12T23:09:11.967Z,15.45
2022-09-12T23:12:13.380Z,15.43
2022-09-12T23:15:14.721Z,15.39
2022-09-12T23:18:16.127Z,15.39
2022-09-12T23:21:20.065Z,15.40
2022-09-12T23:24:21.552Z,15.44
2022-09-12T23:27:22.909Z,15.47
2022-09-12T23:30:24.264Z,15.50
2022-09-12T23:33:29.801Z,15.54
2022-09-12T23:36:31.988Z,15.58
2022-09-12T23:39:33.369Z,15.59
2022-09-12T23:42:34.706Z,15.64
2022-09-12T23:45:36.091Z,15.65
2022-09-12T23:48:37.518Z,15.68
2022-09-12T23:51:38.970Z,15.69
2022-09-12T23:54:40.355Z,15.73
2022-09-12T23:57:41.697Z,15.74
